Time;durP1;ratioP1;P1;durP2;ratioP2;P2;SDS_P1;SDS_P2;PMS_P1;PMS_P2;Temp;Humidity;BMP_temperature;BMP_pressure;BME280_temperature;BME280_humidity;BME280_pressure;Samples;Min_cycle;Max_cycle;Signal;HPM_P1;HPM_P2
2023/04/04 00:01:15;;;;;;;3.55;1.80;;;4.40;99.90;;;;;;4166608;28;20043;-65
2023/04/04 00:03:15;;;;;;;5.03;1.65;;;4.40;99.90;;;;;;4175603;28;20083;-66
2023/04/04 00:05:16;;;;;;;3.35;1.50;;;4.40;99.90;;;;;;4165718;28;20029;-65
2023/04/04 00:07:17;;;;;;;2.50;1.55;;;4.40;99.90;;;;;;4175065;28;20470;-65
2023/04/04 00:09:17;;;;;;;3.83;1.73;;;4.50;99.90;;;;;;4171344;28;20026;-65
2023/04/04 00:11:18;;;;;;;3.83;1.58;;;4.50;99.90;;;;;;4166122;28;20026;-66
2023/04/04 00:13:18;;;;;;;3.90;1.80;;;4.50;99.90;;;;;;4166281;28;20484;-66
2023/04/04 00:15:19;;;;;;;2.95;1.95;;;4.60;99.90;;;;;;4167361;28;20113;-65
2023/04/04 00:17:20;;;;;;;3.85;1.55;;;4.60;99.90;;;;;;4171170;28;20096;-66
2023/04/04 00:19:21;;;;;;;3.35;1.73;;;4.60;99.90;;;;;;4169964;28;20025;-66
2023/04/04 00:21:24;;;;;;;4.85;1.88;;;4.60;99.90;;;;;;4165124;28;20029;-66
2023/04/04 00:23:24;;;;;;;4.70;1.80;;;4.60;99.90;;;;;;4169123;28;20538;-66
2023/04/04 00:25:25;;;;;;;3.13;1.70;;;4.60;99.90;;;;;;4166256;28;20037;-66
2023/04/04 00:27:26;;;;;;;5.10;2.42;;;4.70;99.90;;;;;;4168752;28;20124;-66
2023/04/04 00:29:26;;;;;;;3.13;1.67;;;4.60;99.90;;;;;;4176765;28;20061;-65
2023/04/04 00:31:27;;;;;;;3.97;1.80;;;4.70;99.90;;;;;;4167183;28;20039;-66
2023/04/04 00:33:27;;;;;;;4.13;1.77;;;4.60;99.90;;;;;;4172361;28;20032;-66
2023/04/04 00:35:28;;;;;;;4.40;1.85;;;4.60;99.90;;;;;;4174706;28;20036;-66
2023/04/04 00:37:28;;;;;;;3.03;1.60;;;4.40;99.90;;;;;;4169372;28;20128;-66
2023/04/04 00:39:29;;;;;;;2.92;1.40;;;4.40;99.90;;;;;;4173778;28;20418;-66
2023/04/04 00:41:30;;;;;;;4.57;1.77;;;4.30;99.90;;;;;;4165995;28;20033;-66
2023/04/04 00:43:31;;;;;;;3.90;2.00;;;4.20;99.90;;;;;;4176259;28;20037;-66
2023/04/04 00:45:33;;;;;;;3.58;1.98;;;4.10;99.90;;;;;;4166313;28;20131;-66
2023/04/04 00:47:35;;;;;;;4.35;2.20;;;4.00;99.90;;;;;;4170936;28;20077;-65
2023/04/04 00:49:36;;;;;;;6.25;2.42;;;3.90;99.90;;;;;;4170228;28;20109;-65
2023/04/04 00:51:37;;;;;;;3.47;1.90;;;3.80;99.90;;;;;;4170751;28;20025;-65
2023/04/04 00:53:38;;;;;;;4.60;2.40;;;3.60;99.90;;;;;;4166642;28;20088;-65
2023/04/04 00:55:39;;;;;;;6.47;2.00;;;3.50;99.90;;;;;;4170217;28;20086;-65
2023/04/04 00:57:39;;;;;;;7.75;2.65;;;3.50;99.90;;;;;;4166848;28;20091;-65
2023/04/04 00:59:40;;;;;;;8.02;3.08;;;3.40;99.90;;;;;;4172520;28;20087;-65
2023/04/04 01:01:41;;;;;;;5.03;2.47;;;3.40;99.90;;;;;;4169464;28;20029;-65
2023/04/04 01:03:43;;;;;;;5.68;2.33;;;3.30;99.90;;;;;;4169340;28;20484;-66
2023/04/04 01:05:44;;;;;;;6.93;2.63;;;3.40;99.90;;;;;;4170248;28;20032;-66
2023/04/04 01:07:45;;;;;;;5.65;2.35;;;3.40;99.90;;;;;;4165989;28;20509;-65
2023/04/04 01:09:46;;;;;;;6.22;2.00;;;3.40;99.90;;;;;;4170731;28;20029;-66
2023/04/04 01:11:46;;;;;;;4.18;2.05;;;3.30;99.90;;;;;;4169334;28;20025;-66
2023/04/04 01:13:47;;;;;;;7.47;3.20;;;3.10;99.90;;;;;;4171212;28;20519;-65
2023/04/04 01:15:48;;;;;;;5.57;2.72;;;3.10;99.90;;;;;;4168134;28;20095;-65
2023/04/04 01:17:50;;;;;;;8.27;2.92;;;3.00;99.90;;;;;;4173089;28;20492;-65
2023/04/04 01:20:14;;;;;;;5.95;2.30;;;2.90;99.90;;;;;;4175120;28;20039;-65
2023/04/04 01:22:16;;;;;;;4.45;2.35;;;2.90;99.90;;;;;;4168613;28;20038;-66
2023/04/04 01:24:18;;;;;;;5.28;2.13;;;2.90;99.90;;;;;;4165402;28;20087;-65
2023/04/04 01:26:20;;;;;;;5.53;2.45;;;2.90;99.90;;;;;;4164068;28;20477;-65
2023/04/04 01:28:21;;;;;;;5.38;2.13;;;2.90;99.90;;;;;;4168414;28;20396;-65
2023/04/04 01:30:24;;;;;;;4.43;2.30;;;2.90;99.90;;;;;;4166235;28;20043;-65
2023/04/04 01:32:36;;;;;;;6.22;2.42;;;3.00;99.90;;;;;;4170447;28;21270;-65
2023/04/04 01:35:19;;;;;;;4.10;2.00;;;3.00;99.90;;;;;;4170113;28;20720;-65
2023/04/04 01:37:43;;;;;;;3.00;2.20;;;3.10;99.90;;;;;;4167546;28;20119;-65
2023/04/04 01:39:58;;;;;;;5.90;2.05;;;3.10;99.90;;;;;;4167364;28;20021;-65
2023/04/04 01:42:02;;;;;;;5.50;2.55;;;3.10;99.90;;;;;;4166873;28;20030;-65
2023/04/04 01:44:03;;;;;;;4.88;2.17;;;3.10;99.90;;;;;;4168222;28;20054;-66
2023/04/04 01:46:04;;;;;;;6.70;2.65;;;3.10;99.90;;;;;;4172339;28;20111;-66
2023/04/04 01:48:04;;;;;;;4.50;2.22;;;3.00;99.90;;;;;;4168973;28;20040;-66
2023/04/04 01:50:07;;;;;;;5.75;2.20;;;3.10;99.90;;;;;;4168254;28;20112;-66
2023/04/04 01:52:08;;;;;;;;;;;3.00;99.90;;;;;;4165907;28;20047;-65
2023/04/04 01:54:09;;;;;;;6.20;3.08;;;3.00;99.90;;;;;;4176905;28;19960;-65
2023/04/04 01:56:10;;;;;;;6.85;2.55;;;2.80;99.90;;;;;;4166659;28;20026;-66
2023/04/04 01:58:11;;;;;;;7.40;2.47;;;2.80;99.90;;;;;;4167448;28;20553;-66
2023/04/04 02:00:12;;;;;;;5.85;2.22;;;2.70;99.90;;;;;;4169676;28;20033;-66
2023/04/04 02:02:13;;;;;;;6.90;2.30;;;2.80;99.90;;;;;;4170346;28;20024;-65
2023/04/04 02:04:14;;;;;;;5.22;2.80;;;2.70;99.90;;;;;;4173337;28;20032;-66
2023/04/04 02:06:14;;;;;;;5.53;2.60;;;2.70;99.90;;;;;;4171725;28;20075;-66
2023/04/04 02:08:15;;;;;;;8.35;2.47;;;2.70;99.90;;;;;;4169493;28;20087;-66
2023/04/04 02:10:15;;;;;;;6.47;2.80;;;2.60;99.90;;;;;;4173280;28;20029;-66
2023/04/04 02:12:16;;;;;;;8.40;3.22;;;2.60;99.90;;;;;;4170909;28;20029;-65
2023/04/04 02:14:17;;;;;;;6.45;2.60;;;2.40;99.90;;;;;;4174165;28;20137;-66
2023/04/04 02:16:18;;;;;;;7.22;2.70;;;2.40;99.90;;;;;;4166953;28;20102;-66
2023/04/04 02:18:19;;;;;;;7.10;2.58;;;2.40;99.90;;;;;;4169470;28;20029;-66
2023/04/04 02:20:19;;;;;;;10.10;3.28;;;2.40;99.90;;;;;;4166265;28;20373;-65
2023/04/04 02:22:20;;;;;;;8.35;3.03;;;2.30;99.90;;;;;;4169769;28;20048;-66
2023/04/04 02:24:20;;;;;;;6.22;2.60;;;2.30;99.90;;;;;;4165676;28;20424;-66
2023/04/04 02:26:21;;;;;;;6.22;2.80;;;2.20;99.90;;;;;;4166066;28;20056;-66
2023/04/04 02:28:22;;;;;;;4.50;2.58;;;2.10;99.90;;;;;;4175209;28;20400;-65
2023/04/04 02:30:22;;;;;;;5.72;2.50;;;2.10;99.90;;;;;;4170164;28;20044;-65
2023/04/04 02:32:23;;;;;;;4.60;2.30;;;2.10;99.90;;;;;;4167056;28;20033;-66
2023/04/04 02:34:24;;;;;;;3.55;1.98;;;2.00;99.90;;;;;;4165700;28;20033;-66
2023/04/04 02:36:24;;;;;;;7.07;2.50;;;2.10;99.90;;;;;;4164504;28;20044;-65
2023/04/04 02:38:25;;;;;;;6.68;2.53;;;2.10;99.90;;;;;;4170282;28;22863;-66
2023/04/04 02:40:26;;;;;;;6.28;2.50;;;2.10;99.90;;;;;;4166587;28;20079;-66
2023/04/04 02:42:26;;;;;;;6.43;2.38;;;2.10;99.90;;;;;;4167037;28;20049;-65
2023/04/04 02:44:27;;;;;;;4.43;2.25;;;2.10;99.90;;;;;;4165378;28;23678;-66
2023/04/04 02:46:28;;;;;;;7.07;2.42;;;2.10;99.90;;;;;;4166435;28;20404;-66
2023/04/04 02:48:30;;;;;;;9.32;2.63;;;2.10;99.90;;;;;;4166607;28;20049;-66
2023/04/04 02:50:30;;;;;;;5.13;2.50;;;2.10;99.90;;;;;;4163325;28;20041;-66
2023/04/04 02:52:31;;;;;;;5.28;2.13;;;2.20;99.90;;;;;;4168893;28;20037;-66
2023/04/04 02:54:32;;;;;;;7.63;2.20;;;2.10;99.90;;;;;;4169377;28;20042;-66
2023/04/04 02:56:33;;;;;;;5.38;2.28;;;2.20;99.90;;;;;;4168176;28;20052;-67
2023/04/04 02:58:33;;;;;;;4.75;2.05;;;2.20;99.90;;;;;;4165877;28;20083;-66
2023/04/04 03:00:34;;;;;;;6.65;2.40;;;2.30;99.90;;;;;;4169133;28;20388;-66
2023/04/04 03:02:35;;;;;;;4.00;2.22;;;2.30;99.90;;;;;;4166958;28;20037;-66
2023/04/04 03:04:35;;;;;;;3.97;2.20;;;2.40;99.90;;;;;;4170472;28;20037;-66
2023/04/04 03:06:36;;;;;;;3.95;1.98;;;2.40;99.90;;;;;;4168191;28;20036;-65
2023/04/04 03:08:37;;;;;;;4.82;2.20;;;2.50;99.90;;;;;;4169730;28;20393;-65
2023/04/04 03:10:37;;;;;;;6.03;2.65;;;2.60;99.90;;;;;;4168239;28;20556;-65
2023/04/04 03:12:38;;;;;;;5.07;2.38;;;2.60;99.90;;;;;;4166390;28;20520;-66
2023/04/04 03:14:39;;;;;;;6.07;2.20;;;2.70;99.90;;;;;;4171559;28;20034;-66
2023/04/04 03:16:40;;;;;;;4.45;2.28;;;2.80;99.90;;;;;;4171421;28;20029;-66
2023/04/04 03:18:41;;;;;;;6.05;2.33;;;2.90;99.90;;;;;;4167107;28;20065;-66
2023/04/04 03:20:41;;;;;;;6.90;2.65;;;2.90;99.90;;;;;;4164671;28;20500;-66
2023/04/04 03:22:42;;;;;;;3.35;2.03;;;3.00;99.90;;;;;;4168987;28;20029;-66
2023/04/04 03:24:43;;;;;;;5.65;2.53;;;3.10;99.90;;;;;;4170711;28;20396;-66
2023/04/04 03:26:43;;;;;;;5.72;2.55;;;3.10;99.90;;;;;;4172782;28;20131;-66
2023/04/04 03:28:44;;;;;;;5.47;2.13;;;3.10;99.90;;;;;;4166841;28;20029;-66
2023/04/04 03:30:44;;;;;;;4.32;2.58;;;3.10;99.90;;;;;;4169189;28;20128;-67
2023/04/04 03:32:45;;;;;;;7.38;2.80;;;3.20;99.90;;;;;;4168184;28;20405;-66
2023/04/04 03:34:46;;;;;;;5.70;2.38;;;3.20;99.90;;;;;;4170148;28;20037;-66
2023/04/04 03:36:46;;;;;;;5.25;2.63;;;3.20;99.90;;;;;;4165429;28;20029;-66
2023/04/04 03:38:47;;;;;;;6.28;2.80;;;3.30;99.90;;;;;;4176721;28;20071;-66
2023/04/04 03:40:47;;;;;;;8.15;2.65;;;3.30;99.90;;;;;;4170565;28;20037;-67
2023/04/04 03:42:48;;;;;;;5.65;2.63;;;3.30;99.90;;;;;;4170120;28;20040;-67
2023/04/04 03:44:48;;;;;;;8.65;2.70;;;3.30;99.90;;;;;;4170669;28;21705;-66
2023/04/04 03:46:49;;;;;;;4.05;2.13;;;3.40;99.90;;;;;;4167987;28;20037;-66
2023/04/04 03:48:50;;;;;;;5.13;2.83;;;3.40;99.90;;;;;;4166100;28;20037;-66
2023/04/04 03:50:51;;;;;;;7.38;2.72;;;3.40;99.90;;;;;;4167944;28;20033;-66
2023/04/04 03:52:51;;;;;;;4.13;2.30;;;3.40;99.90;;;;;;4165220;28;20116;-67
2023/04/04 03:54:52;;;;;;;5.88;2.22;;;3.40;99.90;;;;;;4164561;28;20083;-66
2023/04/04 03:56:52;;;;;;;6.25;2.80;;;3.30;99.90;;;;;;4169144;28;20040;-66
2023/04/04 03:58:55;;;;;;;4.72;2.55;;;3.30;99.90;;;;;;4167084;28;20496;-66
2023/04/04 04:00:55;;;;;;;;;;;3.30;99.90;;;;;;4168942;28;20043;-66
2023/04/04 04:02:56;;;;;;;4.68;2.22;;;3.30;99.90;;;;;;4168556;28;20098;-66
2023/04/04 04:04:56;;;;;;;4.43;2.45;;;3.30;99.90;;;;;;4169679;28;20103;-66
2023/04/04 04:06:57;;;;;;;3.50;2.10;;;3.30;99.90;;;;;;4173876;28;20037;-67
2023/04/04 04:08:57;;;;;;;6.95;2.38;;;3.30;99.90;;;;;;4174762;28;20029;-66
2023/04/04 04:11:04;;;;;;;7.35;2.85;;;3.30;99.90;;;;;;4168858;28;20041;-66
2023/04/04 04:13:04;;;;;;;4.95;2.65;;;3.30;99.90;;;;;;4172004;28;20037;-67
2023/04/04 04:15:06;;;;;;;6.07;3.10;;;3.30;99.90;;;;;;4170070;28;20362;-67
2023/04/04 04:17:06;;;;;;;4.88;2.40;;;3.30;99.90;;;;;;4171032;28;20037;-66
2023/04/04 04:19:07;;;;;;;4.57;2.50;;;3.30;99.90;;;;;;4165174;28;20037;-65
2023/04/04 04:21:08;;;;;;;5.97;2.25;;;3.30;99.90;;;;;;4171305;28;20044;-66
2023/04/04 04:23:08;;;;;;;6.20;2.53;;;3.30;99.90;;;;;;4170861;28;20037;-66
2023/04/04 04:25:09;;;;;;;5.40;2.38;;;3.30;99.90;;;;;;4164844;28;20042;-66
2023/04/04 04:27:10;;;;;;;6.80;2.58;;;3.30;99.90;;;;;;4173065;28;20033;-66
2023/04/04 04:29:11;;;;;;;6.60;2.50;;;3.30;99.90;;;;;;4169742;28;20133;-66
2023/04/04 04:31:11;;;;;;;5.43;2.30;;;3.30;99.90;;;;;;4162984;28;20029;-66
2023/04/04 04:33:12;;;;;;;5.45;2.58;;;3.30;99.90;;;;;;4161360;28;20029;-67
2023/04/04 04:35:12;;;;;;;6.93;2.95;;;3.30;99.90;;;;;;4155975;28;20030;-68
2023/04/04 04:37:13;;;;;;;5.28;2.55;;;3.30;99.90;;;;;;4153149;28;20437;-66
2023/04/04 04:39:13;;;;;;;6.13;2.50;;;3.30;99.90;;;;;;4178419;28;20068;-66
2023/04/04 04:41:14;;;;;;;7.60;2.83;;;3.30;99.90;;;;;;4164469;28;20048;-67
2023/04/04 04:43:15;;;;;;;5.70;3.00;;;3.30;99.90;;;;;;4162620;28;20061;-66
2023/04/04 04:45:16;;;;;;;6.55;2.78;;;3.30;99.90;;;;;;4160187;28;20033;-67
2023/04/04 04:47:16;;;;;;;3.72;2.63;;;3.30;99.90;;;;;;4172822;28;20064;-66
2023/04/04 04:49:17;;;;;;;5.70;2.60;;;3.30;99.90;;;;;;4167819;28;20168;-67
2023/04/04 04:51:18;;;;;;;4.93;2.50;;;3.30;99.90;;;;;;4172616;28;20040;-67
2023/04/04 04:53:18;;;;;;;6.95;2.50;;;3.30;99.90;;;;;;4174529;28;20071;-67
2023/04/04 04:55:19;;;;;;;4.15;2.50;;;3.30;99.90;;;;;;4165724;28;20517;-67
2023/04/04 04:57:19;;;;;;;7.53;3.03;;;3.30;99.90;;;;;;4162807;28;20044;-66
2023/04/04 04:59:20;;;;;;;5.72;2.45;;;3.30;99.90;;;;;;4152333;28;20060;-67
2023/04/04 05:01:20;;;;;;;5.95;2.80;;;3.30;99.90;;;;;;4157702;28;20025;-67
2023/04/04 05:03:21;;;;;;;7.47;2.88;;;3.20;99.90;;;;;;4158256;28;20498;-66
2023/04/04 05:05:22;;;;;;;5.53;2.75;;;3.20;99.90;;;;;;4164551;28;20087;-67
2023/04/04 05:07:22;;;;;;;5.13;2.80;;;3.20;99.90;;;;;;4172331;28;20032;-67
2023/04/04 05:09:23;;;;;;;6.35;2.28;;;3.20;99.90;;;;;;4174974;28;20059;-67
2023/04/04 05:11:23;;;;;;;5.07;2.45;;;3.20;99.90;;;;;;4163460;28;20063;-67
2023/04/04 05:13:24;;;;;;;6.78;2.45;;;3.20;99.90;;;;;;4157522;28;20064;-67
2023/04/04 05:15:27;;;;;;;4.57;2.25;;;3.20;99.90;;;;;;4139082;28;20050;-67
2023/04/04 05:17:28;;;;;;;4.85;2.78;;;3.10;99.90;;;;;;4160261;28;20041;-67
2023/04/04 05:19:29;;;;;;;5.20;2.40;;;3.10;99.90;;;;;;4169680;28;20032;-66
2023/04/04 05:21:29;;;;;;;6.82;3.15;;;3.10;99.90;;;;;;4156449;28;20040;-67
2023/04/04 05:23:30;;;;;;;6.03;2.75;;;3.10;99.90;;;;;;4155945;28;20041;-68
2023/04/04 05:25:31;;;;;;;5.35;2.80;;;3.10;99.90;;;;;;4158483;28;20025;-67
2023/04/04 05:27:32;;;;;;;5.07;2.58;;;3.10;99.90;;;;;;4162794;28;20037;-66
2023/04/04 05:29:32;;;;;;;5.82;2.55;;;3.10;99.90;;;;;;4150730;28;20044;-66
2023/04/04 05:31:33;;;;;;;3.95;2.10;;;3.10;99.90;;;;;;4151991;28;20489;-66
2023/04/04 05:33:34;;;;;;;4.22;2.53;;;3.10;99.90;;;;;;4156598;28;20105;-67
2023/04/04 05:35:34;;;;;;;9.85;3.15;;;3.00;99.90;;;;;;4153479;28;20568;-67
2023/04/04 05:37:38;;;;;;;5.72;3.08;;;3.10;99.90;;;;;;4133404;28;20068;-67
2023/04/04 05:39:39;;;;;;;8.90;2.95;;;3.00;99.90;;;;;;4153442;28;20060;-66
2023/04/04 05:41:40;;;;;;;4.93;3.15;;;3.10;99.90;;;;;;4151345;28;20030;-65
2023/04/04 05:43:40;;;;;;;8.02;2.90;;;3.10;99.90;;;;;;4166595;28;20036;-66
2023/04/04 05:45:41;;;;;;;5.72;2.70;;;3.10;99.90;;;;;;4158582;28;20032;-66
2023/04/04 05:47:43;;;;;;;6.80;3.38;;;3.10;99.90;;;;;;4154501;28;20030;-66
2023/04/04 05:49:44;;;;;;;6.63;2.92;;;3.10;99.90;;;;;;4151960;28;20038;-66
2023/04/04 05:51:44;;;;;;;4.40;2.78;;;3.10;99.90;;;;;;4155491;28;20038;-68
2023/04/04 05:53:46;;;;;;;5.10;2.67;;;3.20;99.90;;;;;;4148836;28;20042;-66
2023/04/04 05:55:52;;;;;;;5.93;2.97;;;3.20;99.90;;;;;;4156055;28;20057;-67
2023/04/04 05:57:52;;;;;;;5.22;3.00;;;3.20;99.90;;;;;;4161562;28;20480;-66
2023/04/04 05:59:53;;;;;;;7.00;3.00;;;3.20;99.90;;;;;;4166602;28;20125;-66
2023/04/04 06:01:54;;;;;;;7.68;3.13;;;3.20;99.90;;;;;;4168116;28;20048;-66
2023/04/04 06:03:59;;;;;;;5.05;2.40;;;3.30;99.90;;;;;;4168232;28;20041;-66
2023/04/04 06:06:04;;;;;;;6.65;3.10;;;3.30;99.90;;;;;;4167531;28;20060;-66
2023/04/04 06:08:05;;;;;;;7.13;3.28;;;3.30;99.90;;;;;;4168814;28;20496;-66
2023/04/04 06:10:07;;;;;;;5.97;2.90;;;3.40;99.90;;;;;;4165370;28;20026;-66
2023/04/04 06:12:08;;;;;;;6.45;3.30;;;3.40;99.90;;;;;;4165022;28;20087;-66
2023/04/04 06:14:08;;;;;;;7.15;2.92;;;3.40;99.90;;;;;;4169786;28;20488;-66
2023/04/04 06:16:10;;;;;;;5.50;2.80;;;3.50;99.90;;;;;;4168999;28;20404;-66
2023/04/04 06:18:10;;;;;;;7.72;3.33;;;3.50;99.90;;;;;;4176651;28;20486;-66
2023/04/04 06:20:11;;;;;;;5.63;3.30;;;3.50;99.90;;;;;;4167478;28;20049;-67
2023/04/04 06:22:11;;;;;;;6.55;3.08;;;3.60;99.90;;;;;;4164629;28;20036;-67
2023/04/04 06:24:12;;;;;;;6.50;3.00;;;3.60;99.90;;;;;;4163404;28;20473;-66
2023/04/04 06:26:13;;;;;;;6.00;3.05;;;3.60;99.90;;;;;;4162497;28;20029;-67
2023/04/04 06:28:16;;;;;;;8.93;3.10;;;3.70;99.90;;;;;;4166261;28;20060;-66
2023/04/04 06:30:17;;;;;;;6.93;3.13;;;3.80;99.90;;;;;;4167285;28;20033;-66
2023/04/04 06:32:19;;;;;;;8.18;3.15;;;3.90;99.90;;;;;;4166310;28;20116;-67
2023/04/04 06:34:21;;;;;;;5.15;2.97;;;4.00;99.90;;;;;;4168837;28;20427;-67
2023/04/04 06:36:22;;;;;;;6.18;3.47;;;4.30;99.90;;;;;;4166964;28;20388;-66
2023/04/04 06:38:22;;;;;;;5.72;3.03;;;4.50;99.90;;;;;;4160570;28;20041;-67
2023/04/04 06:40:23;;;;;;;5.65;3.00;;;4.80;99.90;;;;;;4160175;28;20033;-68
2023/04/04 06:42:23;;;;;;;5.97;3.13;;;5.10;99.90;;;;;;4165333;28;20492;-68
2023/04/04 06:44:24;;;;;;;4.05;2.60;;;5.30;99.90;;;;;;4167587;28;20315;-67
2023/04/04 06:46:26;;;;;;;6.32;2.95;;;5.60;99.90;;;;;;4166692;28;20063;-68
2023/04/04 06:48:26;;;;;;;6.15;2.67;;;5.90;99.90;;;;;;4166889;28;20369;-67
2023/04/04 06:50:31;;;;;;;7.10;2.92;;;6.00;99.90;;;;;;4170427;28;20044;-68
2023/04/04 06:52:32;;;;;;;5.38;2.92;;;6.10;99.90;;;;;;4169005;28;20025;-68
2023/04/04 06:54:33;;;;;;;4.63;3.30;;;6.30;99.90;;;;;;4165582;28;20064;-67
2023/04/04 06:56:33;;;;;;;7.03;2.97;;;6.50;99.90;;;;;;4169016;28;20104;-67
2023/04/04 06:58:34;;;;;;;4.60;2.42;;;6.60;99.90;;;;;;4166450;28;20099;-68
2023/04/04 07:00:34;;;;;;;6.03;2.97;;;6.90;99.90;;;;;;4165725;28;20041;-68
2023/04/04 07:02:35;;;;;;;7.82;3.22;;;7.30;99.90;;;;;;4164268;28;20300;-69
2023/04/04 07:04:38;;;;;;;6.20;3.17;;;7.50;99.90;;;;;;4165736;28;20048;-68
2023/04/04 07:06:39;;;;;;;;;;;7.80;99.90;;;;;;4166383;28;20071;-68
2023/04/04 07:08:39;;;;;;;5.03;3.03;;;7.90;99.90;;;;;;4146546;28;19909;-68
2023/04/04 07:10:40;;;;;;;8.57;3.40;;;8.00;99.90;;;;;;4165745;28;20090;-69
2023/04/04 07:12:41;;;;;;;7.95;3.60;;;8.20;99.90;;;;;;4165089;28;20481;-67
2023/04/04 07:14:41;;;;;;;5.45;3.50;;;8.40;99.90;;;;;;4169538;28;20473;-67
2023/04/04 07:16:42;;;;;;;6.75;3.33;;;8.40;99.90;;;;;;4163476;28;20029;-67
2023/04/04 07:18:43;;;;;;;8.15;3.45;;;8.50;99.90;;;;;;4174200;28;20029;-69
2023/04/04 07:20:47;;;;;;;8.63;3.83;;;8.60;99.90;;;;;;4168426;28;20056;-69
2023/04/04 07:22:48;;;;;;;8.18;4.03;;;8.80;99.90;;;;;;4164406;28;20372;-69
2023/04/04 07:24:49;;;;;;;7.25;3.47;;;9.00;99.90;;;;;;4166320;28;20036;-68
2023/04/04 07:26:49;;;;;;;7.18;4.00;;;9.00;99.90;;;;;;4159887;28;20025;-69
2023/04/04 07:28:50;;;;;;;9.18;3.80;;;8.90;99.90;;;;;;4169101;28;20427;-68
2023/04/04 07:30:51;;;;;;;7.53;3.50;;;9.00;99.90;;;;;;4166459;28;20025;-70
2023/04/04 07:33:01;;;;;;;8.80;3.90;;;9.10;99.90;;;;;;4167438;28;20037;-70
2023/04/04 07:35:03;;;;;;;8.50;3.83;;;9.30;99.90;;;;;;4168607;28;20102;-68
2023/04/04 07:37:04;;;;;;;9.88;4.40;;;9.20;99.90;;;;;;4167283;28;24563;-69
2023/04/04 07:39:05;;;;;;;7.40;3.78;;;9.20;99.20;;;;;;4169330;28;20531;-70
2023/04/04 07:41:05;;;;;;;7.10;3.28;;;9.10;99.90;;;;;;4163578;28;20030;-70
2023/04/04 07:43:06;;;;;;;8.07;3.70;;;9.40;99.90;;;;;;4164378;28;20778;-70
2023/04/04 07:45:07;;;;;;;6.65;3.55;;;9.70;99.90;;;;;;4165324;28;20041;-70
2023/04/04 07:47:09;;;;;;;10.10;3.97;;;9.90;99.90;;;;;;4167045;28;20045;-70
2023/04/04 07:49:11;;;;;;;8.45;3.75;;;10.10;99.90;;;;;;4166113;28;20431;-70
2023/04/04 07:51:12;;;;;;;8.93;3.70;;;10.40;99.90;;;;;;4165816;28;20112;-71
2023/04/04 07:53:13;;;;;;;5.93;3.33;;;10.70;99.90;;;;;;4163682;28;20083;-71
2023/04/04 07:55:13;;;;;;;7.30;3.50;;;10.80;98.10;;;;;;4163051;28;20427;-71
2023/04/04 07:57:14;;;;;;;9.65;3.55;;;11.10;99.50;;;;;;4159141;28;20056;-70
2023/04/04 07:59:14;;;;;;;6.25;3.20;;;11.10;94.90;;;;;;4166807;28;20036;-70
2023/04/04 08:01:15;;;;;;;6.88;3.15;;;11.20;96.40;;;;;;4173291;28;20119;-69
2023/04/04 08:03:16;;;;;;;6.50;3.10;;;11.50;95.80;;;;;;4168553;28;20041;-70
2023/04/04 08:05:17;;;;;;;5.97;2.40;;;11.60;95.80;;;;;;4168168;28;20506;-70
2023/04/04 08:07:17;;;;;;;5.50;2.58;;;11.80;98.40;;;;;;4168394;28;20132;-70
2023/04/04 08:09:18;;;;;;;6.53;2.90;;;12.10;95.50;;;;;;4163697;28;20088;-70
2023/04/04 08:11:18;;;;;;;6.03;2.70;;;11.90;85.60;;;;;;4163033;28;20034;-70
2023/04/04 08:13:19;;;;;;;4.80;2.40;;;11.50;87.40;;;;;;4167404;28;20060;-71
2023/04/04 08:15:20;;;;;;;4.13;2.47;;;11.70;87.50;;;;;;4172519;28;20519;-71
2023/04/04 08:17:20;;;;;;;4.47;2.38;;;11.60;90.70;;;;;;4164904;28;20436;-71
2023/04/04 08:19:21;;;;;;;5.45;2.47;;;11.70;87.30;;;;;;4169020;28;20038;-70
2023/04/04 08:21:22;;;;;;;6.07;3.00;;;11.60;85.30;;;;;;4167275;28;20034;-70
2023/04/04 08:23:22;;;;;;;3.08;2.00;;;11.30;82.50;;;;;;4169599;28;20037;-70
2023/04/04 08:25:24;;;;;;;4.75;2.67;;;11.40;81.40;;;;;;4167305;28;20107;-70
2023/04/04 08:27:24;;;;;;;4.07;2.55;;;11.20;78.80;;;;;;4166274;28;20040;-71
2023/04/04 08:29:27;;;;;;;5.05;2.58;;;11.20;79.70;;;;;;4169258;28;20029;-70
2023/04/04 08:31:28;;;;;;;5.95;2.40;;;11.10;82.40;;;;;;4163519;28;20068;-70
2023/04/04 08:33:29;;;;;;;8.18;2.70;;;10.60;84.20;;;;;;4166187;28;20041;-70
2023/04/04 08:35:30;;;;;;;8.82;2.78;;;10.60;83.70;;;;;;4161419;28;20100;-70
2023/04/04 08:37:31;;;;;;;5.95;2.60;;;9.90;77.70;;;;;;4168156;28;20496;-70
2023/04/04 08:39:32;;;;;;;8.95;2.92;;;9.70;78.30;;;;;;4164053;28;20041;-69
2023/04/04 08:41:34;;;;;;;8.40;2.55;;;9.30;77.50;;;;;;4160638;28;20034;-70
2023/04/04 08:43:37;;;;;;;6.35;2.60;;;9.20;81.00;;;;;;4165660;28;20029;-69
2023/04/04 08:45:41;;;;;;;6.60;2.72;;;9.10;83.40;;;;;;4165818;28;20036;-69
2023/04/04 08:47:43;;;;;;;5.63;2.75;;;8.90;79.70;;;;;;4165199;28;20029;-69
2023/04/04 08:49:46;;;;;;;6.20;2.55;;;8.80;84.50;;;;;;4164931;28;20025;-70
2023/04/04 08:51:48;;;;;;;6.07;2.47;;;8.80;81.00;;;;;;4167876;28;20037;-68
2023/04/04 08:53:50;;;;;;;6.03;2.43;;;8.80;81.60;;;;;;4168243;28;20492;-70
2023/04/04 08:55:51;;;;;;;6.47;1.92;;;8.90;88.80;;;;;;4168577;28;20472;-69
2023/04/04 08:57:52;;;;;;;3.80;1.95;;;9.20;87.30;;;;;;4167298;28;20033;-70
2023/04/04 08:59:53;;;;;;;4.97;2.17;;;9.40;88.90;;;;;;4167660;28;20048;-70
2023/04/04 09:02:09;;;;;;;9.75;2.90;;;9.50;85.90;;;;;;4166838;28;20502;-70
2023/04/04 09:04:10;;;;;;;5.32;2.25;;;9.50;90.10;;;;;;4167893;28;20029;-70
2023/04/04 09:06:12;;;;;;;5.60;1.85;;;9.50;81.70;;;;;;4167349;28;20124;-70
2023/04/04 09:08:15;;;;;;;3.80;1.98;;;9.70;89.70;;;;;;4170666;28;20388;-69
2023/04/04 09:10:15;;;;;;;5.72;2.42;;;10.00;85.90;;;;;;4162976;28;20033;-68
2023/04/04 09:12:17;;;;;;;4.70;2.20;;;10.00;78.10;;;;;;4168830;28;20116;-67
2023/04/04 09:14:19;;;;;;;9.70;2.40;;;10.00;76.80;;;;;;4171424;28;20136;-70
2023/04/04 09:16:20;;;;;;;5.25;2.45;;;10.00;77.90;;;;;;4164618;28;20033;-69
2023/04/04 09:18:20;;;;;;;7.60;2.67;;;9.90;76.30;;;;;;4170306;28;20040;-70
2023/04/04 09:20:34;;;;;;;5.82;2.20;;;10.00;77.00;;;;;;4166999;28;20033;-69
2023/04/04 09:22:36;;;;;;;12.23;2.63;;;10.10;77.50;;;;;;4167987;28;20419;-70
2023/04/04 09:24:41;;;;;;;5.90;2.60;;;10.20;76.20;;;;;;4165127;28;20069;-70
2023/04/04 09:26:50;;;;;;;7.18;2.65;;;10.40;77.10;;;;;;4167011;28;20385;-70
2023/04/04 09:28:52;;;;;;;6.45;2.63;;;9.70;77.80;;;;;;4166810;28;20117;-69
2023/04/04 09:30:53;;;;;;;4.47;2.22;;;9.90;83.70;;;;;;4166159;28;20087;-69
2023/04/04 09:32:55;;;;;;;6.78;2.05;;;10.00;77.40;;;;;;4168108;28;20037;-70
2023/04/04 09:34:56;;;;;;;5.30;2.27;;;10.00;76.50;;;;;;4167651;28;20041;-69
2023/04/04 09:36:57;;;;;;;6.47;2.10;;;10.10;78.00;;;;;;4164594;28;20203;-69
2023/04/04 09:38:58;;;;;;;4.68;1.88;;;10.20;77.00;;;;;;4167979;28;20037;-69
2023/04/04 09:40:59;;;;;;;5.47;2.58;;;10.30;83.30;;;;;;4166224;28;20083;-70
2023/04/04 09:43:01;;;;;;;3.95;2.13;;;10.30;80.40;;;;;;4170831;28;20052;-70
2023/04/04 09:45:03;;;;;;;5.72;2.30;;;10.30;77.00;;;;;;4175094;28;20040;-69
2023/04/04 09:47:26;;;;;;;6.05;2.50;;;10.30;77.00;;;;;;4180191;28;20040;-70
2023/04/04 09:49:31;;;;;;;3.80;1.92;;;10.50;76.30;;;;;;4170762;28;20033;-69
2023/04/04 09:51:35;;;;;;;4.93;2.00;;;10.50;78.80;;;;;;4163437;28;20029;-69
2023/04/04 09:53:38;;;;;;;6.57;2.47;;;10.50;75.20;;;;;;4171567;28;20036;-69
2023/04/04 09:55:39;;;;;;;8.32;2.53;;;10.10;78.80;;;;;;4172096;28;20045;-70
2023/04/04 09:57:40;;;;;;;6.82;2.40;;;10.20;83.20;;;;;;4178885;28;20032;-69
2023/04/04 09:59:42;;;;;;;6.18;2.60;;;9.90;88.40;;;;;;4165288;28;20501;-69
2023/04/04 10:01:44;;;;;;;7.57;2.60;;;9.80;79.40;;;;;;4165641;28;20034;-70
2023/04/04 10:03:53;;;;;;;4.82;1.98;;;9.60;78.20;;;;;;4163167;28;20053;-70
2023/04/04 10:06:04;;;;;;;4.95;2.30;;;9.70;83.30;;;;;;4167573;28;20120;-69
2023/04/04 10:08:20;;;;;;;5.57;2.35;;;9.80;81.80;;;;;;4165358;28;20033;-69
2023/04/04 10:10:21;;;;;;;7.75;2.85;;;9.90;79.20;;;;;;4167252;28;20488;-68
2023/04/04 10:12:23;;;;;;;5.55;2.30;;;9.90;82.40;;;;;;4168871;28;20036;-70
2023/04/04 10:14:36;;;;;;;8.85;3.10;;;9.90;84.20;;;;;;4171420;28;20445;-70
2023/04/04 10:16:37;;;;;;;7.38;2.42;;;9.60;78.50;;;;;;4168284;28;20652;-70
2023/04/04 10:18:38;;;;;;;6.93;2.50;;;9.70;80.70;;;;;;4168742;28;20088;-70
2023/04/04 10:20:39;;;;;;;2.97;1.80;;;9.80;82.10;;;;;;4170726;28;20028;-70
2023/04/04 10:22:41;;;;;;;7.45;3.00;;;9.90;90.50;;;;;;4169189;28;20053;-70
2023/04/04 10:24:41;;;;;;;6.60;2.28;;;10.00;79.50;;;;;;4173983;28;20037;-70
2023/04/04 10:26:42;;;;;;;5.68;2.70;;;10.10;83.00;;;;;;4178798;28;20025;-69
2023/04/04 10:28:43;;;;;;;6.10;2.33;;;10.10;85.20;;;;;;4168929;28;20036;-70
2023/04/04 10:31:06;;;;;;;7.90;2.40;;;10.30;77.80;;;;;;4167573;28;20041;-70
2023/04/04 10:33:14;;;;;;;10.50;2.80;;;10.20;90.80;;;;;;4160537;28;20044;-71
2023/04/04 10:35:16;;;;;;;7.47;2.83;;;10.20;75.80;;;;;;4167015;28;20068;-69
2023/04/04 10:37:25;;;;;;;6.72;2.85;;;10.20;81.40;;;;;;4168415;28;20430;-69
2023/04/04 10:39:31;;;;;;;7.80;2.38;;;9.90;73.00;;;;;;4164375;28;20021;-69
2023/04/04 10:41:34;;;;;;;3.70;1.88;;;9.90;75.40;;;;;;4166236;28;20029;-68